sensor_id;sensor_type;location;lat;lon;timestamp;temperature;humidity
29281;DHT22;25048;49.590;11.026;2023-08-01T00:01:52;16.20;99.90
29281;DHT22;25048;49.590;11.026;2023-08-01T00:04:19;16.20;99.90
29281;DHT22;25048;49.590;11.026;2023-08-01T00:06:47;16.20;99.90
29281;DHT22;25048;49.590;11.026;2023-08-01T00:09:14;16.20;99.90
29281;DHT22;25048;49.590;11.026;2023-08-01T00:11:42;16.20;99.90
29281;DHT22;25048;49.590;11.026;2023-08-01T00:14:09;16.30;99.90
29281;DHT22;25048;49.590;11.026;2023-08-01T00:16:37;16.20;99.90
29281;DHT22;25048;49.590;11.026;2023-08-01T00:19:04;16.30;99.90
29281;DHT22;25048;49.590;11.026;2023-08-01T00:21:32;16.30;99.90
29281;DHT22;25048;49.590;11.026;2023-08-01T00:23:59;16.30;99.90
29281;DHT22;25048;49.590;11.026;2023-08-01T00:26:27;16.30;99.90
29281;DHT22;25048;49.590;11.026;2023-08-01T00:28:54;16.30;99.90
29281;DHT22;25048;49.590;11.026;2023-08-01T00:31:22;16.30;99.90
29281;DHT22;25048;49.590;11.026;2023-08-01T00:33:49;16.30;99.90
29281;DHT22;25048;49.590;11.026;2023-08-01T00:36:17;16.30;99.90
29281;DHT22;25048;49.590;11.026;2023-08-01T00:38:44;16.30;99.90
29281;DHT22;25048;49.590;11.026;2023-08-01T00:41:12;16.20;99.90
29281;DHT22;25048;49.590;11.026;2023-08-01T00:43:39;16.20;99.90
29281;DHT22;25048;49.590;11.026;2023-08-01T00:46:08;16.20;99.90
29281;DHT22;25048;49.590;11.026;2023-08-01T00:48:36;16.20;99.90
29281;DHT22;25048;49.590;11.026;2023-08-01T00:51:05;16.20;99.90
29281;DHT22;25048;49.590;11.026;2023-08-01T00:53:34;16.20;99.90
29281;DHT22;25048;49.590;11.026;2023-08-01T00:56:02;16.20;99.90
29281;DHT22;25048;49.590;11.026;2023-08-01T00:58:30;16.20;99.90
29281;DHT22;25048;49.590;11.026;2023-08-01T01:00:58;16.20;99.90
29281;DHT22;25048;49.590;11.026;2023-08-01T01:03:26;16.20;99.90
29281;DHT22;25048;49.590;11.026;2023-08-01T01:06:18;16.20;99.90
29281;DHT22;25048;49.590;11.026;2023-08-01T01:08:24;16.20;99.90
29281;DHT22;25048;49.590;11.026;2023-08-01T01:10:51;16.20;99.90
29281;DHT22;25048;49.590;11.026;2023-08-01T01:13:19;16.20;99.90
29281;DHT22;25048;49.590;11.026;2023-08-01T01:15:46;16.20;99.90
29281;DHT22;25048;49.590;11.026;2023-08-01T01:18:14;16.20;99.90
29281;DHT22;25048;49.590;11.026;2023-08-01T01:20:41;16.20;99.90
29281;DHT22;25048;49.590;11.026;2023-08-01T01:23:09;16.20;99.90
29281;DHT22;25048;49.590;11.026;2023-08-01T01:25:39;16.10;99.90
29281;DHT22;25048;49.590;11.026;2023-08-01T01:28:07;16.10;99.90
29281;DHT22;25048;49.590;11.026;2023-08-01T01:30:35;16.10;99.90
29281;DHT22;25048;49.590;11.026;2023-08-01T01:33:03;16.10;99.90
29281;DHT22;25048;49.590;11.026;2023-08-01T01:35:34;16.10;99.90
29281;DHT22;25048;49.590;11.026;2023-08-01T01:38:02;16.10;99.90
29281;DHT22;25048;49.590;11.026;2023-08-01T01:40:33;16.10;99.90
29281;DHT22;25048;49.590;11.026;2023-08-01T01:43:01;16.00;99.90
29281;DHT22;25048;49.590;11.026;2023-08-01T01:45:29;16.00;99.90
29281;DHT22;25048;49.590;11.026;2023-08-01T01:47:56;16.00;99.90
29281;DHT22;25048;49.590;11.026;2023-08-01T01:50:24;16.00;99.90
29281;DHT22;25048;49.590;11.026;2023-08-01T01:52:51;16.00;99.90
29281;DHT22;25048;49.590;11.026;2023-08-01T01:55:19;16.10;99.90
29281;DHT22;25048;49.590;11.026;2023-08-01T01:57:46;16.10;99.90
29281;DHT22;25048;49.590;11.026;2023-08-01T02:00:14;16.10;99.90
29281;DHT22;25048;49.590;11.026;2023-08-01T02:02:41;16.10;99.90
29281;DHT22;25048;49.590;11.026;2023-08-01T02:05:09;16.10;99.90
29281;DHT22;25048;49.590;11.026;2023-08-01T02:07:36;16.10;99.90
29281;DHT22;25048;49.590;11.026;2023-08-01T02:10:04;16.10;99.90
29281;DHT22;25048;49.590;11.026;2023-08-01T02:12:32;16.10;99.90
29281;DHT22;25048;49.590;11.026;2023-08-01T02:15:01;16.10;99.90
29281;DHT22;25048;49.590;11.026;2023-08-01T02:17:29;16.10;99.90
29281;DHT22;25048;49.590;11.026;2023-08-01T02:19:56;16.10;99.90
29281;DHT22;25048;49.590;11.026;2023-08-01T02:22:25;16.10;99.90
29281;DHT22;25048;49.590;11.026;2023-08-01T02:24:53;16.10;99.90
29281;DHT22;25048;49.590;11.026;2023-08-01T02:27:21;16.10;99.90
29281;DHT22;25048;49.590;11.026;2023-08-01T02:29:48;16.10;99.90
29281;DHT22;25048;49.590;11.026;2023-08-01T02:32:17;16.10;99.90
29281;DHT22;25048;49.590;11.026;2023-08-01T02:34:45;16.10;99.90
29281;DHT22;25048;49.590;11.026;2023-08-01T02:37:13;16.10;99.90
29281;DHT22;25048;49.590;11.026;2023-08-01T02:39:41;16.10;99.90
29281;DHT22;25048;49.590;11.026;2023-08-01T02:42:08;16.10;99.90
29281;DHT22;25048;49.590;11.026;2023-08-01T02:44:36;16.10;99.90
29281;DHT22;25048;49.590;11.026;2023-08-01T02:47:03;16.10;99.90
29281;DHT22;25048;49.590;11.026;2023-08-01T02:49:32;16.10;99.90
29281;DHT22;25048;49.590;11.026;2023-08-01T02:52:00;16.10;99.90
29281;DHT22;25048;49.590;11.026;2023-08-01T02:54:27;16.10;99.90
29281;DHT22;25048;49.590;11.026;2023-08-01T02:56:55;16.10;99.90
29281;DHT22;25048;49.590;11.026;2023-08-01T02:59:22;16.10;99.90
29281;DHT22;25048;49.590;11.026;2023-08-01T03:01:50;16.10;99.90
29281;DHT22;25048;49.590;11.026;2023-08-01T03:04:18;16.10;99.90
29281;DHT22;25048;49.590;11.026;2023-08-01T03:06:45;16.10;99.90
29281;DHT22;25048;49.590;11.026;2023-08-01T03:09:13;16.10;99.90
29281;DHT22;25048;49.590;11.026;2023-08-01T03:11:40;16.00;99.90
29281;DHT22;25048;49.590;11.026;2023-08-01T03:14:08;16.00;99.90
29281;DHT22;25048;49.590;11.026;2023-08-01T03:16:35;16.00;99.90
29281;DHT22;25048;49.590;11.026;2023-08-01T03:19:03;16.00;99.90
29281;DHT22;25048;49.590;11.026;2023-08-01T03:21:34;16.00;99.90
29281;DHT22;25048;49.590;11.026;2023-08-01T03:24:03;16.10;99.90
29281;DHT22;25048;49.590;11.026;2023-08-01T03:26:32;16.00;99.90
29281;DHT22;25048;49.590;11.026;2023-08-01T03:29:00;16.00;99.90
29281;DHT22;25048;49.590;11.026;2023-08-01T03:31:27;16.00;99.90
29281;DHT22;25048;49.590;11.026;2023-08-01T03:33:55;16.00;99.90
29281;DHT22;25048;49.590;11.026;2023-08-01T03:36:25;16.10;99.90
29281;DHT22;25048;49.590;11.026;2023-08-01T03:38:52;16.00;99.90
29281;DHT22;25048;49.590;11.026;2023-08-01T03:41:20;16.00;99.90
29281;DHT22;25048;49.590;11.026;2023-08-01T03:43:47;16.00;99.90
29281;DHT22;25048;49.590;11.026;2023-08-01T03:46:15;16.00;99.90
29281;DHT22;25048;49.590;11.026;2023-08-01T03:48:42;16.00;99.90
29281;DHT22;25048;49.590;11.026;2023-08-01T03:51:10;16.00;99.90
29281;DHT22;25048;49.590;11.026;2023-08-01T03:53:37;16.00;99.90
29281;DHT22;25048;49.590;11.026;2023-08-01T03:56:05;16.00;99.90
29281;DHT22;25048;49.590;11.026;2023-08-01T03:58:32;16.00;99.90
29281;DHT22;25048;49.590;11.026;2023-08-01T04:01:00;16.00;99.90
29281;DHT22;25048;49.590;11.026;2023-08-01T04:03:27;16.00;99.90
29281;DHT22;25048;49.590;11.026;2023-08-01T04:05:55;16.00;99.90
29281;DHT22;25048;49.590;11.026;2023-08-01T04:08:22;16.00;99.90
29281;DHT22;25048;49.590;11.026;2023-08-01T04:10:50;16.00;99.90
29281;DHT22;25048;49.590;11.026;2023-08-01T04:13:17;16.00;99.90
29281;DHT22;25048;49.590;11.026;2023-08-01T04:15:45;16.00;99.90
29281;DHT22;25048;49.590;11.026;2023-08-01T04:18:12;15.90;99.90
29281;DHT22;25048;49.590;11.026;2023-08-01T04:20:40;16.00;99.90
29281;DHT22;25048;49.590;11.026;2023-08-01T04:23:07;16.00;99.90
29281;DHT22;25048;49.590;11.026;2023-08-01T04:25:35;16.00;99.90
29281;DHT22;25048;49.590;11.026;2023-08-01T04:28:02;16.00;99.90
29281;DHT22;25048;49.590;11.026;2023-08-01T04:30:30;16.00;99.90
29281;DHT22;25048;49.590;11.026;2023-08-01T04:32:59;16.00;99.90
29281;DHT22;25048;49.590;11.026;2023-08-01T04:35:27;16.00;99.90
29281;DHT22;25048;49.590;11.026;2023-08-01T04:37:54;16.00;99.90
29281;DHT22;25048;49.590;11.026;2023-08-01T04:40:22;16.00;99.90
29281;DHT22;25048;49.590;11.026;2023-08-01T04:42:49;16.00;99.90
29281;DHT22;25048;49.590;11.026;2023-08-01T04:45:17;16.10;99.90
29281;DHT22;25048;49.590;11.026;2023-08-01T04:47:44;16.10;99.90
29281;DHT22;25048;49.590;11.026;2023-08-01T04:50:12;16.10;99.90
29281;DHT22;25048;49.590;11.026;2023-08-01T04:52:39;16.10;99.90
29281;DHT22;25048;49.590;11.026;2023-08-01T04:55:07;16.10;99.90
29281;DHT22;25048;49.590;11.026;2023-08-01T04:57:35;16.00;99.90
29281;DHT22;25048;49.590;11.026;2023-08-01T05:00:03;16.00;99.90
29281;DHT22;25048;49.590;11.026;2023-08-01T05:02:31;16.00;99.90
29281;DHT22;25048;49.590;11.026;2023-08-01T05:04:59;16.10;99.90
29281;DHT22;25048;49.590;11.026;2023-08-01T05:07:26;16.10;99.90
29281;DHT22;25048;49.590;11.026;2023-08-01T05:09:54;16.10;99.90
29281;DHT22;25048;49.590;11.026;2023-08-01T05:12:21;16.10;99.90
29281;DHT22;25048;49.590;11.026;2023-08-01T05:14:49;16.10;99.90
29281;DHT22;25048;49.590;11.026;2023-08-01T05:17:16;16.10;99.90
29281;DHT22;25048;49.590;11.026;2023-08-01T05:19:44;16.10;99.90
29281;DHT22;25048;49.590;11.026;2023-08-01T05:22:11;16.10;99.90
29281;DHT22;25048;49.590;11.026;2023-08-01T05:24:40;16.10;99.90
29281;DHT22;25048;49.590;11.026;2023-08-01T05:27:07;16.10;99.90
29281;DHT22;25048;49.590;11.026;2023-08-01T05:29:35;16.20;99.90
29281;DHT22;25048;49.590;11.026;2023-08-01T05:32:03;16.20;99.90
29281;DHT22;25048;49.590;11.026;2023-08-01T05:34:30;16.20;99.90
29281;DHT22;25048;49.590;11.026;2023-08-01T05:36:58;16.20;99.90
29281;DHT22;25048;49.590;11.026;2023-08-01T05:39:25;16.20;99.90
29281;DHT22;25048;49.590;11.026;2023-08-01T05:41:53;16.20;99.90
29281;DHT22;25048;49.590;11.026;2023-08-01T05:44:20;16.20;99.90
29281;DHT22;25048;49.590;11.026;2023-08-01T05:46:48;16.20;99.90
29281;DHT22;25048;49.590;11.026;2023-08-01T05:49:15;16.30;99.90
29281;DHT22;25048;49.590;11.026;2023-08-01T05:51:43;16.30;99.90
29281;DHT22;25048;49.590;11.026;2023-08-01T05:54:10;16.30;99.90
29281;DHT22;25048;49.590;11.026;2023-08-01T05:56:38;16.30;99.90
29281;DHT22;25048;49.590;11.026;2023-08-01T05:59:05;16.20;99.90
29281;DHT22;25048;49.590;11.026;2023-08-01T06:01:33;16.30;99.90
29281;DHT22;25048;49.590;11.026;2023-08-01T06:04:01;16.30;99.90
29281;DHT22;25048;49.590;11.026;2023-08-01T06:06:28;16.30;99.90
29281;DHT22;25048;49.590;11.026;2023-08-01T06:08:56;16.30;99.90
29281;DHT22;25048;49.590;11.026;2023-08-01T06:11:23;16.20;99.90
29281;DHT22;25048;49.590;11.026;2023-08-01T06:13:53;16.30;99.90
29281;DHT22;25048;49.590;11.026;2023-08-01T06:16:20;16.30;99.90
29281;DHT22;25048;49.590;11.026;2023-08-01T06:18:48;16.30;99.90
29281;DHT22;25048;49.590;11.026;2023-08-01T06:21:15;16.30;99.90
29281;DHT22;25048;49.590;11.026;2023-08-01T06:23:43;16.30;99.90
29281;DHT22;25048;49.590;11.026;2023-08-01T06:26:10;16.30;99.90
29281;DHT22;25048;49.590;11.026;2023-08-01T06:28:38;16.30;99.90
29281;DHT22;25048;49.590;11.026;2023-08-01T06:31:05;16.30;99.90
29281;DHT22;25048;49.590;11.026;2023-08-01T06:33:33;16.30;99.90
29281;DHT22;25048;49.590;11.026;2023-08-01T06:36:00;16.30;99.90
29281;DHT22;25048;49.590;11.026;2023-08-01T06:38:28;16.30;99.90
29281;DHT22;25048;49.590;11.026;2023-08-01T06:40:55;16.30;99.90
29281;DHT22;25048;49.590;11.026;2023-08-01T06:43:23;16.30;99.90
29281;DHT22;25048;49.590;11.026;2023-08-01T06:45:53;16.30;99.90
29281;DHT22;25048;49.590;11.026;2023-08-01T06:48:21;16.30;99.90
29281;DHT22;25048;49.590;11.026;2023-08-01T06:50:48;16.40;99.90
29281;DHT22;25048;49.590;11.026;2023-08-01T06:53:15;16.40;99.90
29281;DHT22;25048;49.590;11.026;2023-08-01T06:55:43;16.40;99.90
29281;DHT22;25048;49.590;11.026;2023-08-01T06:58:11;16.40;99.90
29281;DHT22;25048;49.590;11.026;2023-08-01T07:00:38;16.40;99.90
29281;DHT22;25048;49.590;11.026;2023-08-01T07:03:06;16.40;99.90
29281;DHT22;25048;49.590;11.026;2023-08-01T07:05:34;16.40;99.90
29281;DHT22;25048;49.590;11.026;2023-08-01T07:08:01;16.40;99.90
29281;DHT22;25048;49.590;11.026;2023-08-01T07:10:29;16.50;99.90
29281;DHT22;25048;49.590;11.026;2023-08-01T07:12:56;16.50;99.90
29281;DHT22;25048;49.590;11.026;2023-08-01T07:15:24;16.60;99.90
29281;DHT22;25048;49.590;11.026;2023-08-01T07:17:52;16.60;99.90
29281;DHT22;25048;49.590;11.026;2023-08-01T07:20:20;16.60;99.90
29281;DHT22;25048;49.590;11.026;2023-08-01T07:22:47;16.60;99.90
29281;DHT22;25048;49.590;11.026;2023-08-01T07:25:15;16.60;99.90
29281;DHT22;25048;49.590;11.026;2023-08-01T07:27:43;16.60;99.90
29281;DHT22;25048;49.590;11.026;2023-08-01T07:30:10;16.60;99.90
29281;DHT22;25048;49.590;11.026;2023-08-01T07:32:38;16.60;99.90
29281;DHT22;25048;49.590;11.026;2023-08-01T07:35:06;16.60;99.90
29281;DHT22;25048;49.590;11.026;2023-08-01T07:37:34;16.60;99.90
29281;DHT22;25048;49.590;11.026;2023-08-01T07:40:01;16.60;99.90
29281;DHT22;25048;49.590;11.026;2023-08-01T07:42:29;16.60;99.90
29281;DHT22;25048;49.590;11.026;2023-08-01T07:44:56;16.60;99.90
29281;DHT22;25048;49.590;11.026;2023-08-01T07:47:24;16.60;99.90
29281;DHT22;25048;49.590;11.026;2023-08-01T07:49:52;16.60;99.90
29281;DHT22;25048;49.590;11.026;2023-08-01T07:52:19;16.60;99.90
29281;DHT22;25048;49.590;11.026;2023-08-01T07:54:47;16.60;99.90
29281;DHT22;25048;49.590;11.026;2023-08-01T07:57:14;16.60;99.90
29281;DHT22;25048;49.590;11.026;2023-08-01T07:59:42;16.60;99.90
29281;DHT22;25048;49.590;11.026;2023-08-01T08:02:10;16.60;99.90
29281;DHT22;25048;49.590;11.026;2023-08-01T08:04:37;16.60;99.90
29281;DHT22;25048;49.590;11.026;2023-08-01T08:07:05;16.60;99.90
29281;DHT22;25048;49.590;11.026;2023-08-01T08:09:33;16.60;99.90
29281;DHT22;25048;49.590;11.026;2023-08-01T08:12:00;16.60;99.90
29281;DHT22;25048;49.590;11.026;2023-08-01T08:14:28;16.60;99.90
29281;DHT22;25048;49.590;11.026;2023-08-01T08:16:56;16.60;99.90
29281;DHT22;25048;49.590;11.026;2023-08-01T08:19:24;16.50;99.90
29281;DHT22;25048;49.590;11.026;2023-08-01T08:21:51;16.60;99.90
29281;DHT22;25048;49.590;11.026;2023-08-01T08:24:19;16.50;99.90
29281;DHT22;25048;49.590;11.026;2023-08-01T08:26:46;16.50;99.90
29281;DHT22;25048;49.590;11.026;2023-08-01T08:29:14;16.60;99.90
29281;DHT22;25048;49.590;11.026;2023-08-01T08:31:41;16.50;99.90
29281;DHT22;25048;49.590;11.026;2023-08-01T08:34:09;16.50;99.90
29281;DHT22;25048;49.590;11.026;2023-08-01T08:36:36;16.50;99.90
29281;DHT22;25048;49.590;11.026;2023-08-01T08:39:04;16.60;99.90
29281;DHT22;25048;49.590;11.026;2023-08-01T08:41:38;16.60;99.90
29281;DHT22;25048;49.590;11.026;2023-08-01T08:44:08;16.60;99.90
29281;DHT22;25048;49.590;11.026;2023-08-01T08:46:40;16.60;99.90
29281;DHT22;25048;49.590;11.026;2023-08-01T08:49:07;16.50;99.90
29281;DHT22;25048;49.590;11.026;2023-08-01T08:51:37;16.50;99.90
29281;DHT22;25048;49.590;11.026;2023-08-01T08:54:05;16.50;99.90
29281;DHT22;25048;49.590;11.026;2023-08-01T08:56:34;16.50;99.90
29281;DHT22;25048;49.590;11.026;2023-08-01T08:59:01;16.50;99.90
29281;DHT22;25048;49.590;11.026;2023-08-01T09:01:29;16.50;99.90
29281;DHT22;25048;49.590;11.026;2023-08-01T09:03:57;16.50;99.90
29281;DHT22;25048;49.590;11.026;2023-08-01T09:06:31;16.50;99.90
29281;DHT22;25048;49.590;11.026;2023-08-01T09:09:10;16.50;99.90
29281;DHT22;25048;49.590;11.026;2023-08-01T09:11:48;16.60;99.90
29281;DHT22;25048;49.590;11.026;2023-08-01T09:14:17;16.60;99.90
29281;DHT22;25048;49.590;11.026;2023-08-01T09:16:45;16.60;99.90
29281;DHT22;25048;49.590;11.026;2023-08-01T09:19:20;16.60;99.90
29281;DHT22;25048;49.590;11.026;2023-08-01T09:21:48;16.70;99.90
29281;DHT22;25048;49.590;11.026;2023-08-01T09:24:19;16.70;99.90
29281;DHT22;25048;49.590;11.026;2023-08-01T09:26:48;16.70;99.90
29281;DHT22;25048;49.590;11.026;2023-08-01T09:29:20;16.80;99.90
29281;DHT22;25048;49.590;11.026;2023-08-01T09:31:47;16.90;99.90
29281;DHT22;25048;49.590;11.026;2023-08-01T09:34:24;16.90;99.90
29281;DHT22;25048;49.590;11.026;2023-08-01T09:36:59;16.90;99.90
29281;DHT22;25048;49.590;11.026;2023-08-01T09:39:27;16.80;99.90
29281;DHT22;25048;49.590;11.026;2023-08-01T09:42:00;16.80;99.90
29281;DHT22;25048;49.590;11.026;2023-08-01T09:44:28;16.80;99.90
29281;DHT22;25048;49.590;11.026;2023-08-01T09:47:02;16.90;99.90
29281;DHT22;25048;49.590;11.026;2023-08-01T09:49:30;17.00;99.90
29281;DHT22;25048;49.590;11.026;2023-08-01T09:51:59;17.00;99.90
29281;DHT22;25048;49.590;11.026;2023-08-01T09:54:28;17.10;99.90
29281;DHT22;25048;49.590;11.026;2023-08-01T09:56:55;17.20;99.90
29281;DHT22;25048;49.590;11.026;2023-08-01T09:59:24;17.20;99.90
29281;DHT22;25048;49.590;11.026;2023-08-01T10:01:53;17.20;99.90
29281;DHT22;25048;49.590;11.026;2023-08-01T10:04:29;17.20;99.90
29281;DHT22;25048;49.590;11.026;2023-08-01T10:07:08;17.30;99.90
29281;DHT22;25048;49.590;11.026;2023-08-01T10:09:37;17.30;99.90
29281;DHT22;25048;49.590;11.026;2023-08-01T10:12:05;17.40;99.90
29281;DHT22;25048;49.590;11.026;2023-08-01T10:14:33;17.40;99.90
29281;DHT22;25048;49.590;11.026;2023-08-01T10:17:02;17.50;99.90
29281;DHT22;25048;49.590;11.026;2023-08-01T10:19:32;17.60;99.90
29281;DHT22;25048;49.590;11.026;2023-08-01T10:22:00;17.60;99.90
29281;DHT22;25048;49.590;11.026;2023-08-01T10:24:29;17.60;99.90
29281;DHT22;25048;49.590;11.026;2023-08-01T10:26:57;17.70;99.90
29281;DHT22;25048;49.590;11.026;2023-08-01T10:29:35;17.80;99.90
29281;DHT22;25048;49.590;11.026;2023-08-01T10:32:03;17.90;99.90
29281;DHT22;25048;49.590;11.026;2023-08-01T10:34:32;18.00;99.90
29281;DHT22;25048;49.590;11.026;2023-08-01T10:37:00;18.00;99.90
29281;DHT22;25048;49.590;11.026;2023-08-01T10:39:28;18.00;99.90
29281;DHT22;25048;49.590;11.026;2023-08-01T10:42:03;18.00;99.90
29281;DHT22;25048;49.590;11.026;2023-08-01T10:44:32;18.00;99.90
29281;DHT22;25048;49.590;11.026;2023-08-01T10:47:03;18.10;99.90
29281;DHT22;25048;49.590;11.026;2023-08-01T10:49:39;18.20;99.90
29281;DHT22;25048;49.590;11.026;2023-08-01T10:52:25;18.20;99.90
29281;DHT22;25048;49.590;11.026;2023-08-01T10:55:01;18.30;99.90
29281;DHT22;25048;49.590;11.026;2023-08-01T10:57:31;18.40;99.90
29281;DHT22;25048;49.590;11.026;2023-08-01T10:59:59;18.50;99.90
29281;DHT22;25048;49.590;11.026;2023-08-01T11:02:28;18.50;99.90
29281;DHT22;25048;49.590;11.026;2023-08-01T11:05:01;18.60;99.90
29281;DHT22;25048;49.590;11.026;2023-08-01T11:07:29;18.70;99.90
29281;DHT22;25048;49.590;11.026;2023-08-01T11:10:11;18.80;99.90
29281;DHT22;25048;49.590;11.026;2023-08-01T11:12:44;18.90;99.90
29281;DHT22;25048;49.590;11.026;2023-08-01T11:15:13;19.00;99.90
29281;DHT22;25048;49.590;11.026;2023-08-01T11:17:45;19.20;99.90
29281;DHT22;25048;49.590;11.026;2023-08-01T11:20:12;19.30;99.90
29281;DHT22;25048;49.590;11.026;2023-08-01T11:22:57;19.40;99.90
29281;DHT22;25048;49.590;11.026;2023-08-01T11:25:37;19.60;99.90
29281;DHT22;25048;49.590;11.026;2023-08-01T11:28:07;19.80;99.90
29281;DHT22;25048;49.590;11.026;2023-08-01T11:30:36;19.80;99.90
29281;DHT22;25048;49.590;11.026;2023-08-01T11:33:18;19.70;99.90
29281;DHT22;25048;49.590;11.026;2023-08-01T11:35:56;19.60;99.90
29281;DHT22;25048;49.590;11.026;2023-08-01T11:38:23;19.30;99.90
29281;DHT22;25048;49.590;11.026;2023-08-01T11:40:52;19.20;99.90
29281;DHT22;25048;49.590;11.026;2023-08-01T11:43:19;19.00;99.90
29281;DHT22;25048;49.590;11.026;2023-08-01T11:45:55;18.80;99.90
29281;DHT22;25048;49.590;11.026;2023-08-01T11:48:23;18.40;99.90
29281;DHT22;25048;49.590;11.026;2023-08-01T11:50:58;18.00;99.90
29281;DHT22;25048;49.590;11.026;2023-08-01T11:53:26;17.50;99.90
29281;DHT22;25048;49.590;11.026;2023-08-01T11:55:54;17.10;99.90
29281;DHT22;25048;49.590;11.026;2023-08-01T11:58:34;16.90;99.90
29281;DHT22;25048;49.590;11.026;2023-08-01T12:01:13;16.90;99.90
29281;DHT22;25048;49.590;11.026;2023-08-01T12:03:51;16.90;99.90
29281;DHT22;25048;49.590;11.026;2023-08-01T12:06:23;17.00;99.90
29281;DHT22;25048;49.590;11.026;2023-08-01T12:08:53;17.00;99.90
29281;DHT22;25048;49.590;11.026;2023-08-01T12:11:25;17.10;99.90
29281;DHT22;25048;49.590;11.026;2023-08-01T12:14:13;17.30;99.90
29281;DHT22;25048;49.590;11.026;2023-08-01T12:16:38;17.40;99.90
29281;DHT22;25048;49.590;11.026;2023-08-01T12:19:07;17.60;99.90
29281;DHT22;25048;49.590;11.026;2023-08-01T12:21:35;18.00;99.90
29281;DHT22;25048;49.590;11.026;2023-08-01T12:24:03;18.40;99.90
29281;DHT22;25048;49.590;11.026;2023-08-01T12:26:31;18.60;99.90
29281;DHT22;25048;49.590;11.026;2023-08-01T12:28:58;18.80;99.90
29281;DHT22;25048;49.590;11.026;2023-08-01T12:31:26;19.20;99.90
29281;DHT22;25048;49.590;11.026;2023-08-01T12:33:54;19.60;99.90
29281;DHT22;25048;49.590;11.026;2023-08-01T12:36:22;20.00;99.90
29281;DHT22;25048;49.590;11.026;2023-08-01T12:38:50;20.20;99.90
29281;DHT22;25048;49.590;11.026;2023-08-01T12:41:17;20.40;99.90
29281;DHT22;25048;49.590;11.026;2023-08-01T12:43:45;20.70;99.90
29281;DHT22;25048;49.590;11.026;2023-08-01T12:46:12;21.10;99.90
29281;DHT22;25048;49.590;11.026;2023-08-01T12:48:40;21.50;99.90
29281;DHT22;25048;49.590;11.026;2023-08-01T12:51:08;21.70;99.90
29281;DHT22;25048;49.590;11.026;2023-08-01T12:53:36;22.10;99.90
29281;DHT22;25048;49.590;11.026;2023-08-01T12:56:03;22.50;99.90
29281;DHT22;25048;49.590;11.026;2023-08-01T12:58:31;22.50;99.90
29281;DHT22;25048;49.590;11.026;2023-08-01T13:00:58;22.60;99.90
29281;DHT22;25048;49.590;11.026;2023-08-01T13:03:26;22.90;99.90
29281;DHT22;25048;49.590;11.026;2023-08-01T13:05:54;23.20;99.90
29281;DHT22;25048;49.590;11.026;2023-08-01T13:08:23;23.40;99.90
29281;DHT22;25048;49.590;11.026;2023-08-01T13:10:50;23.50;99.90
29281;DHT22;25048;49.590;11.026;2023-08-01T13:13:18;23.20;99.90
29281;DHT22;25048;49.590;11.026;2023-08-01T13:15:46;22.70;99.90
29281;DHT22;25048;49.590;11.026;2023-08-01T13:18:13;22.30;99.90
29281;DHT22;25048;49.590;11.026;2023-08-01T13:20:41;22.40;99.90
29281;DHT22;25048;49.590;11.026;2023-08-01T13:23:09;22.40;99.90
29281;DHT22;25048;49.590;11.026;2023-08-01T13:25:36;22.20;99.90
29281;DHT22;25048;49.590;11.026;2023-08-01T13:28:04;22.40;99.90
29281;DHT22;25048;49.590;11.026;2023-08-01T13:30:31;22.90;99.90
29281;DHT22;25048;49.590;11.026;2023-08-01T13:32:59;23.40;99.90
29281;DHT22;25048;49.590;11.026;2023-08-01T13:35:27;23.50;99.90
29281;DHT22;25048;49.590;11.026;2023-08-01T13:37:55;23.20;99.90
29281;DHT22;25048;49.590;11.026;2023-08-01T13:40:24;22.80;99.90
29281;DHT22;25048;49.590;11.026;2023-08-01T13:42:52;22.50;99.90
29281;DHT22;25048;49.590;11.026;2023-08-01T13:45:19;22.20;99.90
29281;DHT22;25048;49.590;11.026;2023-08-01T13:47:47;21.90;99.90
29281;DHT22;25048;49.590;11.026;2023-08-01T13:50:14;21.70;99.90
29281;DHT22;25048;49.590;11.026;2023-08-01T13:52:42;21.50;99.90
29281;DHT22;25048;49.590;11.026;2023-08-01T13:55:10;21.40;99.90
29281;DHT22;25048;49.590;11.026;2023-08-01T13:57:37;21.70;99.90
29281;DHT22;25048;49.590;11.026;2023-08-01T14:00:06;22.00;99.90
29281;DHT22;25048;49.590;11.026;2023-08-01T14:02:34;22.00;99.90
29281;DHT22;25048;49.590;11.026;2023-08-01T14:05:02;22.00;99.90
29281;DHT22;25048;49.590;11.026;2023-08-01T14:07:29;21.90;99.90
29281;DHT22;25048;49.590;11.026;2023-08-01T14:09:57;21.80;99.90
29281;DHT22;25048;49.590;11.026;2023-08-01T14:12:25;22.30;99.90
29281;DHT22;25048;49.590;11.026;2023-08-01T14:14:53;22.70;99.90
29281;DHT22;25048;49.590;11.026;2023-08-01T14:17:21;23.10;99.90
29281;DHT22;25048;49.590;11.026;2023-08-01T14:19:48;23.50;99.90
29281;DHT22;25048;49.590;11.026;2023-08-01T14:22:16;23.80;99.90
29281;DHT22;25048;49.590;11.026;2023-08-01T14:24:43;23.50;99.90
29281;DHT22;25048;49.590;11.026;2023-08-01T14:27:11;23.30;99.90
29281;DHT22;25048;49.590;11.026;2023-08-01T14:29:39;23.20;99.90
29281;DHT22;25048;49.590;11.026;2023-08-01T14:32:07;23.30;99.90
29281;DHT22;25048;49.590;11.026;2023-08-01T14:34:34;23.40;99.90
29281;DHT22;25048;49.590;11.026;2023-08-01T14:37:02;23.40;99.90
29281;DHT22;25048;49.590;11.026;2023-08-01T14:39:30;23.70;99.90
29281;DHT22;25048;49.590;11.026;2023-08-01T14:42:02;24.00;99.90
29281;DHT22;25048;49.590;11.026;2023-08-01T14:44:28;24.40;99.90
29281;DHT22;25048;49.590;11.026;2023-08-01T14:46:55;24.90;99.90
29281;DHT22;25048;49.590;11.026;2023-08-01T14:49:23;25.00;99.90
29281;DHT22;25048;49.590;11.026;2023-08-01T14:51:52;25.20;99.90
29281;DHT22;25048;49.590;11.026;2023-08-01T14:54:19;25.40;99.90
29281;DHT22;25048;49.590;11.026;2023-08-01T14:56:47;25.50;99.90
29281;DHT22;25048;49.590;11.026;2023-08-01T14:59:15;25.60;99.90
29281;DHT22;25048;49.590;11.026;2023-08-01T15:01:42;25.80;99.90
29281;DHT22;25048;49.590;11.026;2023-08-01T15:04:10;26.00;99.90
29281;DHT22;25048;49.590;11.026;2023-08-01T15:06:37;25.90;99.90
29281;DHT22;25048;49.590;11.026;2023-08-01T15:09:05;25.90;99.90
29281;DHT22;25048;49.590;11.026;2023-08-01T15:11:32;26.00;99.90
29281;DHT22;25048;49.590;11.026;2023-08-01T15:14:00;26.00;99.90
29281;DHT22;25048;49.590;11.026;2023-08-01T15:16:27;26.20;99.90
29281;DHT22;25048;49.590;11.026;2023-08-01T15:18:55;26.40;99.90
29281;DHT22;25048;49.590;11.026;2023-08-01T15:21:22;26.50;99.90
29281;DHT22;25048;49.590;11.026;2023-08-01T15:23:51;26.50;99.90